Time;durP1;ratioP1;P1;durP2;ratioP2;P2;SDS_P1;SDS_P2;PMS_P1;PMS_P2;Temp;Humidity;BMP_temperature;BMP_pressure;BME280_temperature;BME280_humidity;BME280_pressure;Samples;Min_cycle;Max_cycle;Signal;HPM_P1;HPM_P2
2023/02/14 00:00:45;;;;;;;21.43;14.37;;;2.00;99.90;;;;;;5011486;28;20191;-64
2023/02/14 00:03:12;;;;;;;20.40;14.17;;;1.70;99.90;;;;;;5022475;28;20246;-64
2023/02/14 00:05:37;;;;;;;21.77;14.15;;;2.00;99.90;;;;;;5022377;28;20213;-64
2023/02/14 00:08:03;;;;;;;20.70;15.07;;;2.00;99.90;;;;;;5020510;28;20182;-64
2023/02/14 00:10:29;;;;;;;21.73;14.80;;;2.20;99.90;;;;;;5023892;28;20202;-64
2023/02/14 00:12:54;;;;;;;23.60;14.57;;;2.00;99.90;;;;;;5025081;28;20183;-64
2023/02/14 00:15:23;;;;;;;21.43;15.13;;;1.90;99.90;;;;;;5025663;28;20190;-64
2023/02/14 00:17:50;;;;;;;19.17;14.23;;;2.10;99.90;;;;;;5016722;28;20246;-64
2023/02/14 00:20:16;;;;;;;19.98;13.90;;;2.20;99.90;;;;;;5023364;28;20194;-65
2023/02/14 00:22:42;;;;;;;22.93;15.23;;;1.90;99.90;;;;;;5020441;28;20195;-64
2023/02/14 00:25:07;;;;;;;21.70;15.10;;;2.20;99.90;;;;;;5025916;28;20469;-64
2023/02/14 00:27:33;;;;;;;20.60;15.40;;;1.60;99.90;;;;;;5020569;28;20261;-64
2023/02/14 00:30:01;;;;;;;21.30;14.53;;;1.70;99.90;;;;;;5019394;28;20183;-65
2023/02/14 00:32:28;;;;;;;22.33;14.98;;;2.20;99.90;;;;;;5015254;28;20221;-64
2023/02/14 00:34:54;;;;;;;20.52;15.02;;;2.20;99.90;;;;;;5020539;28;20190;-64
2023/02/14 00:37:20;;;;;;;23.50;14.77;;;2.10;99.90;;;;;;5017610;28;20213;-64
2023/02/14 00:39:46;;;;;;;23.30;14.53;;;2.10;99.90;;;;;;5021857;28;20186;-64
2023/02/14 00:42:12;;;;;;;19.80;14.60;;;1.90;99.90;;;;;;5018132;28;20546;-64
2023/02/14 00:44:38;;;;;;;17.70;14.25;;;2.00;99.90;;;;;;5024584;28;20197;-63
2023/02/14 00:47:04;;;;;;;20.02;14.65;;;1.40;99.90;;;;;;5020211;28;20229;-63
2023/02/14 00:49:29;;;;;;;19.60;14.40;;;1.90;99.90;;;;;;5015002;28;20667;-63
2023/02/14 00:51:55;;;;;;;21.53;14.00;;;1.40;99.90;;;;;;5019170;28;20214;-63
2023/02/14 00:54:21;;;;;;;21.43;14.37;;;1.30;99.90;;;;;;5024259;28;20198;-63
2023/02/14 00:56:46;;;;;;;21.50;14.37;;;1.20;99.90;;;;;;5018523;28;20203;-63
2023/02/14 00:59:12;;;;;;;21.30;14.50;;;1.60;99.90;;;;;;5020257;28;20183;-63
2023/02/14 01:01:38;;;;;;;21.37;15.03;;;1.50;99.90;;;;;;5010369;28;20215;-63
2023/02/14 01:04:04;;;;;;;18.95;13.65;;;1.20;99.90;;;;;;5019154;28;20682;-63
2023/02/14 01:06:29;;;;;;;21.92;15.02;;;1.80;99.90;;;;;;5022037;28;20294;-63
2023/02/14 01:08:55;;;;;;;19.30;13.80;;;1.80;99.90;;;;;;5012344;28;20183;-63
2023/02/14 01:11:23;;;;;;;19.47;14.10;;;1.60;99.90;;;;;;5017301;28;20278;-63
2023/02/14 01:13:49;;;;;;;19.50;14.10;;;1.60;99.90;;;;;;5020628;28;20190;-63
2023/02/14 01:16:19;;;;;;;18.25;13.35;;;1.20;99.90;;;;;;5014287;28;20207;-63
2023/02/14 01:18:45;;;;;;;19.15;13.80;;;2.00;99.90;;;;;;5017399;28;20183;-63
2023/02/14 01:21:15;;;;;;;20.60;14.17;;;1.70;99.90;;;;;;5021539;28;20187;-63
2023/02/14 01:23:41;;;;;;;22.50;14.25;;;1.80;99.90;;;;;;5015947;28;20453;-63
2023/02/14 01:26:08;;;;;;;23.35;15.38;;;1.80;99.90;;;;;;5023703;28;20652;-63
2023/02/14 01:28:33;;;;;;;19.90;14.07;;;1.60;99.90;;;;;;5019001;28;20283;-63
2023/02/14 01:31:14;;;;;;;19.30;13.83;;;1.60;99.90;;;;;;5018356;28;20742;-63
2023/02/14 01:33:41;;;;;;;18.15;13.32;;;1.70;99.90;;;;;;5010220;28;20776;-63
2023/02/14 01:36:15;;;;;;;19.45;13.43;;;1.70;99.90;;;;;;5016511;28;20714;-63
2023/02/14 01:38:40;;;;;;;21.30;14.60;;;1.20;99.90;;;;;;5016833;28;20628;-63
2023/02/14 01:41:06;;;;;;;22.17;14.27;;;1.50;99.90;;;;;;5018154;28;20221;-63
2023/02/14 01:43:47;;;;;;;19.80;14.10;;;1.50;99.90;;;;;;5012521;28;20558;-63
2023/02/14 01:46:13;;;;;;;21.73;13.90;;;1.60;99.90;;;;;;5023502;28;20718;-63
2023/02/14 01:48:38;;;;;;;21.57;14.20;;;1.10;99.90;;;;;;5014566;28;20298;-63
2023/02/14 01:51:04;;;;;;;19.57;14.23;;;1.60;99.90;;;;;;5020410;28;20237;-63
2023/02/14 01:53:29;;;;;;;21.30;14.63;;;1.60;99.90;;;;;;5010844;28;20310;-63
2023/02/14 01:56:06;;;;;;;19.57;13.43;;;1.30;99.90;;;;;;5018225;28;20216;-63
2023/02/14 01:58:36;;;;;;;25.75;15.27;;;1.70;99.90;;;;;;5018144;28;20186;-62
2023/02/14 02:01:03;;;;;;;19.90;14.05;;;1.40;99.90;;;;;;5017390;28;20594;-63
2023/02/14 02:03:36;;;;;;;21.08;13.85;;;1.40;99.90;;;;;;5015245;28;20201;-63
2023/02/14 02:06:10;;;;;;;18.30;13.73;;;1.00;99.90;;;;;;5014219;28;20297;-63
2023/02/14 02:08:42;;;;;;;22.20;13.63;;;1.50;99.90;;;;;;5017413;28;20259;-63
2023/02/14 02:11:07;;;;;;;19.70;13.98;;;1.00;99.90;;;;;;5018271;28;20210;-63
2023/02/14 02:13:33;;;;;;;18.17;14.20;;;1.60;99.90;;;;;;5026887;28;20277;-63
2023/02/14 02:16:21;;;;;;;23.83;15.50;;;1.50;99.90;;;;;;5009212;28;20218;-63
2023/02/14 02:19:14;;;;;;;19.58;13.57;;;1.70;99.90;;;;;;5021322;28;20194;-65
2023/02/14 02:22:02;;;;;;;19.45;14.35;;;1.50;99.90;;;;;;5013478;28;20200;-63
2023/02/14 02:24:32;;;;;;;18.00;13.55;;;1.40;99.90;;;;;;5020806;28;20554;-64
2023/02/14 02:27:15;;;;;;;21.52;13.68;;;1.00;99.90;;;;;;5014583;28;20661;-63
2023/02/14 02:30:21;;;;;;;21.65;15.18;;;1.70;99.90;;;;;;5019420;28;20656;-63
2023/02/14 02:33:20;;;;;;;22.33;14.10;;;1.40;99.90;;;;;;5017005;28;20202;-63
2023/02/14 02:36:09;;;;;;;19.23;13.45;;;1.60;99.90;;;;;;5019199;28;20190;-64
2023/02/14 02:38:37;;;;;;;26.30;14.77;;;1.50;99.90;;;;;;5000625;28;20578;-63
2023/02/14 02:41:17;;;;;;;18.10;13.20;;;1.40;99.90;;;;;;5021924;28;20187;-63
2023/02/14 02:43:53;;;;;;;21.25;14.15;;;1.40;99.90;;;;;;5018426;28;20691;-63
2023/02/14 02:46:47;;;;;;;21.85;14.73;;;1.50;99.90;;;;;;5015781;28;20289;-63
2023/02/14 02:55:12;;;;;;;19.52;13.25;;;1.50;99.90;;;;;;5010358;28;20201;-63
2023/02/14 02:57:40;;;;;;;18.50;12.93;;;1.50;99.90;;;;;;5019760;28;20207;-63
2023/02/14 03:00:10;;;;;;;22.98;14.30;;;1.60;99.90;;;;;;5022702;28;20270;-63
2023/02/14 03:05:28;;;;;;;19.05;13.50;;;1.60;99.90;;;;;;5019593;28;20193;-65
2023/02/14 03:07:54;;;;;;;20.73;14.35;;;1.40;99.90;;;;;;5013643;28;20241;-63
2023/02/14 03:10:20;;;;;;;20.53;14.27;;;0.80;99.90;;;;;;5023081;28;20248;-63
2023/02/14 03:13:01;;;;;;;18.77;13.00;;;1.40;99.90;;;;;;5022132;28;20183;-64
2023/02/14 03:15:37;;;;;;;22.20;14.80;;;1.30;99.90;;;;;;5019086;28;20198;-64
2023/02/14 03:18:37;;;;;;;23.05;14.90;;;1.50;99.90;;;;;;5015433;28;20261;-64
2023/02/14 03:21:11;;;;;;;19.00;13.02;;;1.60;99.90;;;;;;5017611;28;20215;-64
2023/02/14 03:23:55;;;;;;;21.30;14.48;;;1.60;99.90;;;;;;5015014;28;20186;-64
2023/02/14 03:27:14;;;;;;;19.02;13.40;;;1.00;99.90;;;;;;5021493;28;20256;-64
2023/02/14 03:29:57;;;;;;;21.40;13.95;;;1.20;99.90;;;;;;4992194;28;20195;-64
2023/02/14 03:32:44;;;;;;;22.25;14.73;;;1.30;99.90;;;;;;5014990;28;20190;-64
2023/02/14 03:35:24;;;;;;;20.65;14.63;;;1.80;99.90;;;;;;5019052;28;20178;-64
2023/02/14 03:38:15;;;;;;;20.77;14.88;;;1.30;99.90;;;;;;5014014;28;20864;-64
2023/02/14 03:40:48;;;;;;;20.30;14.48;;;1.60;99.90;;;;;;5015059;28;20190;-64
2023/02/14 03:43:34;;;;;;;22.25;14.02;;;1.30;99.90;;;;;;5019867;28;20190;-64
2023/02/14 03:46:03;;;;;;;20.38;14.20;;;1.30;99.90;;;;;;5013780;28;20209;-64
2023/02/14 03:48:32;;;;;;;22.35;14.90;;;1.70;99.90;;;;;;5007599;28;20187;-64
2023/02/14 03:50:58;;;;;;;20.52;13.98;;;0.60;99.90;;;;;;5013624;28;20240;-64
2023/02/14 03:53:30;;;;;;;26.52;14.90;;;0.60;99.90;;;;;;5014954;28;20623;-64
2023/02/14 03:56:16;;;;;;;22.23;14.32;;;1.10;99.90;;;;;;5014809;28;20206;-66
2023/02/14 03:58:46;;;;;;;23.02;15.52;;;1.30;99.90;;;;;;5015873;28;20210;-64
2023/02/14 04:01:17;;;;;;;20.65;14.18;;;0.90;99.90;;;;;;5011206;28;20301;-64
2023/02/14 04:03:44;;;;;;;25.10;15.82;;;1.30;99.90;;;;;;5013126;28;20283;-64
2023/02/14 04:06:10;;;;;;;22.63;15.45;;;1.10;99.90;;;;;;5024302;28;20584;-67
2023/02/14 04:08:35;;;;;;;23.07;15.30;;;1.20;99.90;;;;;;5020589;28;20195;-65
2023/02/14 04:11:02;;;;;;;19.90;14.43;;;1.20;99.90;;;;;;5020987;28;20301;-68
2023/02/14 04:13:28;;;;;;;19.20;13.23;;;0.90;99.90;;;;;;5025378;28;20216;-66
2023/02/14 04:15:54;;;;;;;23.40;16.67;;;1.10;99.90;;;;;;5019672;28;20265;-66
2023/02/14 04:21:04;;;;;;;21.52;14.38;;;1.60;99.90;;;;;;5013590;28;20272;-65
2023/02/14 04:23:30;;;;;;;24.30;15.83;;;1.10;99.90;;;;;;5019887;28;20198;-66
2023/02/14 04:25:55;;;;;;;18.83;14.60;;;1.30;99.90;;;;;;5021150;28;20460;-65
2023/02/14 04:28:21;;;;;;;21.30;15.27;;;0.80;99.90;;;;;;5021353;28;20621;-66
2023/02/14 04:30:46;;;;;;;22.23;15.23;;;0.60;99.90;;;;;;5018427;28;20218;-65
2023/02/14 04:33:12;;;;;;;23.00;14.50;;;1.30;99.90;;;;;;5016931;28;20568;-65
2023/02/14 04:35:38;;;;;;;27.13;15.60;;;1.10;99.90;;;;;;5013061;28;20197;-68
2023/02/14 04:38:03;;;;;;;23.97;15.77;;;0.60;99.90;;;;;;5015714;28;20198;-66
2023/02/14 04:40:29;;;;;;;22.00;15.70;;;1.20;99.90;;;;;;5022641;28;20193;-65
2023/02/14 04:42:55;;;;;;;28.67;20.23;;;1.20;99.90;;;;;;5016153;28;20441;-65
2023/02/14 04:45:21;;;;;;;26.00;16.08;;;0.90;99.90;;;;;;5015621;28;20201;-66
2023/02/14 04:47:46;;;;;;;23.20;16.40;;;1.20;99.90;;;;;;5018668;28;20219;-66
2023/02/14 04:50:13;;;;;;;28.33;17.33;;;1.30;99.90;;;;;;5010868;28;20198;-65
2023/02/14 04:52:38;;;;;;;21.27;15.43;;;0.70;99.90;;;;;;5015884;28;20182;-65
2023/02/14 04:55:05;;;;;;;26.70;16.10;;;1.20;99.90;;;;;;5017405;28;20294;-65
2023/02/14 04:57:30;;;;;;;26.58;16.40;;;1.10;99.90;;;;;;5008018;28;20460;-68
2023/02/14 04:59:56;;;;;;;27.03;17.13;;;0.70;99.90;;;;;;5008945;28;20189;-65
2023/02/14 05:02:22;;;;;;;28.97;16.83;;;0.50;99.90;;;;;;5011660;28;20532;-66
2023/02/14 05:04:47;;;;;;;26.00;17.87;;;0.60;99.90;;;;;;5012857;28;20190;-64
2023/02/14 05:07:13;;;;;;;24.17;16.00;;;0.40;99.90;;;;;;5009890;28;20215;-66
2023/02/14 05:09:39;;;;;;;22.75;14.88;;;1.20;99.90;;;;;;5017653;28;20193;-66
2023/02/14 05:12:04;;;;;;;24.37;16.30;;;0.70;99.90;;;;;;5015365;28;20585;-66
2023/02/14 05:14:30;;;;;;;26.07;17.07;;;1.00;99.90;;;;;;5011247;28;20281;-69
2023/02/14 05:16:55;;;;;;;23.23;15.70;;;1.30;99.90;;;;;;5009440;28;20225;-65
2023/02/14 05:19:22;;;;;;;27.07;17.87;;;1.10;99.90;;;;;;5016350;28;20183;-65
2023/02/14 05:21:48;;;;;;;24.95;15.90;;;0.80;99.90;;;;;;5006127;28;20178;-68
2023/02/14 05:24:15;;;;;;;25.97;16.97;;;0.40;99.90;;;;;;5007512;28;20572;-65
2023/02/14 05:26:40;;;;;;;30.05;18.98;;;0.90;99.90;;;;;;5012834;28;20222;-65
2023/02/14 05:29:06;;;;;;;24.97;15.97;;;0.80;99.90;;;;;;5014844;28;20178;-65
2023/02/14 05:31:32;;;;;;;28.20;18.00;;;1.00;99.90;;;;;;5015398;28;20265;-65
2023/02/14 05:33:57;;;;;;;27.63;17.13;;;0.50;99.90;;;;;;5008281;28;20206;-66
2023/02/14 05:36:23;;;;;;;24.33;16.10;;;0.90;99.90;;;;;;5007980;28;20214;-66
2023/02/14 05:38:49;;;;;;;28.17;17.90;;;0.80;99.90;;;;;;5015222;28;20277;-65
2023/02/14 05:41:14;;;;;;;30.00;17.73;;;0.80;99.90;;;;;;5014070;28;20225;-65
2023/02/14 05:43:40;;;;;;;27.53;18.13;;;0.30;99.90;;;;;;5012716;28;20187;-66
2023/02/14 05:46:05;;;;;;;30.70;19.27;;;0.90;99.90;;;;;;5019921;28;21145;-65
2023/02/14 05:48:32;;;;;;;28.37;17.00;;;1.00;99.90;;;;;;5005601;28;20560;-66
2023/02/14 05:51:06;;;;;;;30.10;17.70;;;0.80;99.90;;;;;;5011736;28;20236;-64
2023/02/14 05:53:33;;;;;;;29.45;18.73;;;0.30;99.90;;;;;;5012032;28;20207;-64
2023/02/14 05:55:58;;;;;;;27.52;18.83;;;0.20;99.90;;;;;;5013993;28;20207;-64
2023/02/14 05:58:24;;;;;;;30.30;19.33;;;0.60;99.90;;;;;;5015448;28;20241;-64
2023/02/14 06:00:50;;;;;;;29.70;18.43;;;0.70;99.90;;;;;;5005705;28;20828;-64
2023/02/14 06:03:15;;;;;;;27.97;18.80;;;1.20;99.90;;;;;;5011514;28;20440;-64
2023/02/14 06:05:41;;;;;;;27.10;17.73;;;0.80;99.90;;;;;;5010293;28;20210;-64
2023/02/14 06:08:06;;;;;;;31.10;18.77;;;0.90;99.90;;;;;;5015663;28;20197;-64
2023/02/14 06:10:32;;;;;;;27.70;17.50;;;0.10;99.90;;;;;;5010090;28;20217;-64
2023/02/14 06:12:58;;;;;;;26.77;17.73;;;0.80;99.90;;;;;;5015500;28;20179;-64
2023/02/14 06:15:23;;;;;;;27.60;18.57;;;0.10;99.90;;;;;;5007399;28;20232;-63
2023/02/14 06:17:54;;;;;;;27.33;18.47;;;0.90;99.90;;;;;;5022351;28;20236;-63
2023/02/14 06:20:21;;;;;;;31.13;18.35;;;0.80;99.90;;;;;;5023121;28;20529;-65
2023/02/14 06:22:47;;;;;;;27.40;16.83;;;0.30;99.90;;;;;;5016072;28;20187;-65
2023/02/14 06:25:12;;;;;;;30.97;18.13;;;0.90;99.90;;;;;;5021580;28;20186;-65
2023/02/14 06:27:38;;;;;;;31.58;19.13;;;1.00;99.90;;;;;;5019998;28;20203;-65
2023/02/14 06:30:05;;;;;;;29.30;17.87;;;0.30;99.90;;;;;;5009880;28;20187;-65
2023/02/14 06:32:31;;;;;;;26.95;18.98;;;1.20;99.90;;;;;;5011684;28;20190;-64
2023/02/14 06:34:56;;;;;;;26.80;17.77;;;0.90;99.90;;;;;;5011412;28;20194;-64
2023/02/14 06:37:22;;;;;;;27.80;19.27;;;1.10;99.90;;;;;;5013126;28;20202;-65
2023/02/14 06:39:48;;;;;;;32.87;18.40;;;0.90;99.90;;;;;;5008408;28;20183;-65
2023/02/14 06:42:14;;;;;;;32.37;19.60;;;1.10;99.90;;;;;;5014542;28;20187;-65
2023/02/14 06:44:39;;;;;;;32.23;19.63;;;0.80;99.90;;;;;;5021298;28;20198;-65
2023/02/14 06:47:05;;;;;;;31.67;20.10;;;1.20;99.90;;;;;;5018102;28;20514;-65
2023/02/14 06:49:30;;;;;;;27.27;17.00;;;1.40;99.90;;;;;;5020403;28;20206;-65
2023/02/14 06:51:56;;;;;;;27.40;16.97;;;1.10;99.90;;;;;;5013845;28;20269;-64
2023/02/14 06:54:21;;;;;;;30.30;18.37;;;1.40;99.90;;;;;;5012478;28;20190;-64
2023/02/14 06:56:47;;;;;;;28.27;18.80;;;1.10;99.90;;;;;;5022100;28;20560;-65
2023/02/14 06:59:12;;;;;;;26.77;17.33;;;1.00;99.90;;;;;;5006399;28;20667;-63
2023/02/14 07:01:38;;;;;;;29.53;18.50;;;1.00;99.90;;;;;;5013483;28;20202;-63
2023/02/14 07:04:04;;;;;;;26.30;18.30;;;0.90;99.90;;;;;;5011779;28;20207;-64
2023/02/14 07:06:30;;;;;;;28.50;16.07;;;0.90;99.90;;;;;;5019787;28;20222;-66
2023/02/14 07:08:55;;;;;;;28.95;17.50;;;1.10;99.90;;;;;;5015786;28;20201;-66
2023/02/14 07:11:21;;;;;;;29.00;18.37;;;0.90;99.90;;;;;;5021192;28;20210;-65
2023/02/14 07:13:46;;;;;;;27.33;18.30;;;1.20;99.90;;;;;;5017350;28;20186;-66
2023/02/14 07:16:12;;;;;;;29.40;18.40;;;1.00;99.90;;;;;;5010024;28;20207;-67
2023/02/14 07:18:37;;;;;;;29.00;17.20;;;1.20;99.90;;;;;;5017251;28;20244;-67
2023/02/14 07:21:03;;;;;;;28.40;18.93;;;0.80;99.90;;;;;;5019233;28;20631;-66
2023/02/14 07:23:29;;;;;;;27.37;17.43;;;1.40;99.90;;;;;;5008669;28;20183;-65
2023/02/14 07:25:55;;;;;;;31.13;18.93;;;1.20;99.90;;;;;;5019994;28;20659;-65
2023/02/14 07:28:21;;;;;;;28.10;19.38;;;1.20;99.90;;;;;;5013462;28;20197;-64
2023/02/14 07:30:46;;;;;;;31.53;19.13;;;1.20;99.90;;;;;;5020025;28;20211;-64
2023/02/14 07:33:12;;;;;;;30.80;18.10;;;1.30;99.90;;;;;;5022146;28;20445;-65
2023/02/14 07:35:38;;;;;;;28.33;18.40;;;1.30;99.90;;;;;;5020556;28;20309;-65
2023/02/14 07:38:03;;;;;;;31.67;19.60;;;1.80;99.90;;;;;;5019724;28;20437;-65
2023/02/14 07:40:29;;;;;;;31.97;18.50;;;1.50;99.90;;;;;;5026066;28;20268;-65
2023/02/14 07:42:56;;;;;;;27.83;17.93;;;1.90;99.90;;;;;;5017958;28;20187;-65
2023/02/14 07:45:23;;;;;;;30.10;18.90;;;2.00;99.90;;;;;;5023412;28;20316;-65
2023/02/14 07:47:50;;;;;;;38.13;20.40;;;0.90;99.90;;;;;;5015579;28;20211;-64
2023/02/14 07:50:16;;;;;;;33.10;22.70;;;2.10;99.90;;;;;;5022054;28;20344;-64
2023/02/14 07:52:42;;;;;;;32.27;19.43;;;1.90;99.90;;;;;;5017677;28;20183;-64
2023/02/14 07:55:08;;;;;;;28.17;17.93;;;1.80;99.90;;;;;;5019590;28;20206;-67
2023/02/14 07:57:33;;;;;;;27.97;18.70;;;1.90;99.90;;;;;;5018924;28;20199;-67
2023/02/14 07:59:59;;;;;;;29.10;19.53;;;2.00;99.90;;;;;;5022103;28;20435;-65
2023/02/14 08:02:24;;;;;;;23.77;17.00;;;2.60;99.90;;;;;;5014491;28;20188;-65
2023/02/14 08:04:50;;;;;;;25.67;16.60;;;2.20;99.90;;;;;;5024751;28;20198;-66
2023/02/14 08:07:15;;;;;;;31.10;19.37;;;2.20;99.90;;;;;;5014599;28;20266;-65
2023/02/14 08:09:41;;;;;;;27.73;17.90;;;1.60;99.90;;;;;;5020231;28;20249;-66
2023/02/14 08:14:51;;;;;;;26.30;18.55;;;2.50;99.90;;;;;;5024250;28;20289;-64
2023/02/14 08:17:16;;;;;;;23.07;16.40;;;2.90;99.90;;;;;;5017079;28;20294;-64
2023/02/14 08:19:42;;;;;;;22.60;16.33;;;3.10;99.90;;;;;;5022564;28;20584;-64
2023/02/14 08:22:07;;;;;;;27.50;18.27;;;2.10;99.90;;;;;;5014053;28;20196;-64
2023/02/14 08:24:33;;;;;;;25.53;17.70;;;2.80;99.90;;;;;;5015833;28;20236;-64
2023/02/14 08:26:59;;;;;;;24.77;15.90;;;2.90;99.90;;;;;;5024383;28;20206;-65
2023/02/14 08:29:25;;;;;;;25.50;16.70;;;3.40;99.90;;;;;;5020705;28;20285;-65
2023/02/14 08:31:51;;;;;;;24.20;16.98;;;3.00;99.90;;;;;;5006373;28;22058;-64
2023/02/14 08:34:17;;;;;;;27.95;17.83;;;2.80;99.90;;;;;;5020289;28;20552;-64
2023/02/14 08:36:43;;;;;;;24.10;17.13;;;3.20;99.90;;;;;;5024171;28;20286;-63
2023/02/14 08:39:08;;;;;;;20.30;15.30;;;3.10;99.90;;;;;;5015341;28;20958;-64
2023/02/14 08:41:34;;;;;;;26.40;17.87;;;3.00;99.90;;;;;;5020236;28;20260;-64
2023/02/14 08:44:00;;;;;;;29.58;19.02;;;2.90;99.90;;;;;;5024463;28;20529;-63
2023/02/14 08:46:27;;;;;;;25.30;17.03;;;3.80;99.90;;;;;;5009985;28;20225;-63
2023/02/14 08:48:53;;;;;;;26.05;17.60;;;3.50;99.90;;;;;;5014869;28;20273;-63
2023/02/14 08:51:20;;;;;;;26.08;19.67;;;3.80;99.90;;;;;;5012582;28;20196;-64
2023/02/14 08:53:49;;;;;;;28.13;18.52;;;3.60;99.90;;;;;;5010713;28;20636;-64
2023/02/14 08:56:15;;;;;;;25.35;18.30;;;4.10;99.90;;;;;;5011535;28;20553;-63
2023/02/14 08:58:40;;;;;;;23.53;17.93;;;3.60;99.90;;;;;;5014683;28;20190;-66
2023/02/14 09:01:16;;;;;;;24.77;18.40;;;3.70;99.90;;;;;;5015014;28;20192;-66
2023/02/14 09:03:42;;;;;;;24.38;17.70;;;3.90;99.90;;;;;;5014804;28;20197;-66
2023/02/14 09:06:11;;;;;;;25.83;17.75;;;4.10;99.90;;;;;;5009001;28;20235;-66
2023/02/14 09:08:38;;;;;;;24.75;16.75;;;5.40;99.90;;;;;;5011985;28;20292;-66
2023/02/14 09:11:13;;;;;;;21.95;16.27;;;6.80;99.90;;;;;;5005514;28;20214;-67
2023/02/14 09:13:39;;;;;;;22.77;15.38;;;9.00;99.90;;;;;;5015397;28;20187;-69
2023/02/14 09:16:06;;;;;;;22.25;16.33;;;11.00;98.30;;;;;;5005456;28;20217;-67
2023/02/14 09:18:33;;;;;;;18.05;14.88;;;12.70;93.80;;;;;;5006457;28;20201;-68
2023/02/14 09:20:58;;;;;;;19.50;15.40;;;13.70;90.70;;;;;;5004215;28;20229;-67
2023/02/14 09:23:24;;;;;;;19.10;16.00;;;14.50;85.40;;;;;;5013284;28;20659;-68
2023/02/14 09:25:49;;;;;;;19.93;16.97;;;14.80;81.80;;;;;;5010006;28;20202;-67
2023/02/14 09:28:15;;;;;;;18.20;16.13;;;13.30;82.30;;;;;;5012765;28;20551;-67
2023/02/14 09:30:41;;;;;;;18.40;16.00;;;11.20;86.40;;;;;;5005722;28;20212;-70
2023/02/14 09:33:06;;;;;;;20.80;16.13;;;10.80;90.60;;;;;;5017534;28;20599;-68
2023/02/14 09:38:19;;;;;;;18.67;15.55;;;13.20;87.00;;;;;;5008505;28;20779;-67
2023/02/14 09:40:45;;;;;;;17.85;15.30;;;12.30;85.70;;;;;;5010100;28;20187;-67
2023/02/14 09:43:29;;;;;;;19.25;15.10;;;13.80;84.60;;;;;;5008076;28;20183;-70
2023/02/14 09:45:58;;;;;;;18.63;15.48;;;14.30;80.30;;;;;;5017321;28;20204;-69
2023/02/14 09:48:36;;;;;;;15.68;13.98;;;12.60;83.50;;;;;;5015740;28;20210;-67
2023/02/14 09:51:06;;;;;;;16.60;14.80;;;11.80;87.20;;;;;;5007160;28;20301;-69
2023/02/14 09:53:34;;;;;;;19.25;15.13;;;11.20;89.70;;;;;;5010679;28;20204;-68
2023/02/14 09:56:19;;;;;;;19.55;15.60;;;10.80;91.10;;;;;;5015093;28;20289;-68
2023/02/14 09:58:57;;;;;;;18.15;14.98;;;10.80;91.50;;;;;;5011904;28;20558;-68
2023/02/14 10:01:55;;;;;;;19.05;15.35;;;11.00;91.60;;;;;;5005525;28;20515;-66
2023/02/14 10:04:30;;;;;;;20.23;15.02;;;12.10;91.00;;;;;;5005106;28;20256;-68
2023/02/14 10:07:08;;;;;;;19.17;15.80;;;13.10;85.70;;;;;;5005185;28;20194;-65
2023/02/14 10:09:53;;;;;;;22.40;15.65;;;14.30;80.80;;;;;;5008146;28;20190;-65
2023/02/14 10:12:41;;;;;;;19.25;15.90;;;14.90;80.50;;;;;;5015028;28;20203;-66
2023/02/14 10:15:24;;;;;;;17.50;14.80;;;15.10;77.60;;;;;;5016132;28;20244;-67
2023/02/14 10:17:53;;;;;;;19.52;15.65;;;15.00;77.50;;;;;;5008999;28;20245;-66
2023/02/14 10:20:38;;;;;;;20.45;16.50;;;14.10;80.50;;;;;;5009339;28;20608;-66
2023/02/14 10:23:31;;;;;;;19.60;15.85;;;13.70;79.80;;;;;;4994593;28;20191;-66
2023/02/14 10:26:04;;;;;;;19.15;15.80;;;14.10;79.90;;;;;;5011502;28;20271;-66
2023/02/14 10:28:38;;;;;;;20.05;17.10;;;13.50;80.00;;;;;;5018778;28;20673;-66
2023/02/14 10:31:24;;;;;;;17.48;15.40;;;13.40;80.80;;;;;;5013083;28;20289;-65
2023/02/14 10:33:51;;;;;;;20.75;16.10;;;12.60;81.70;;;;;;5021178;28;20190;-65
2023/02/14 10:36:40;;;;;;;19.33;16.63;;;12.20;83.70;;;;;;5011379;28;20233;-64
2023/02/14 10:39:30;;;;;;;22.38;15.45;;;12.00;85.80;;;;;;5015467;28;20438;-65
2023/02/14 10:42:07;;;;;;;19.42;15.70;;;12.40;85.60;;;;;;5022679;28;20197;-66
2023/02/14 10:44:47;;;;;;;20.52;15.43;;;13.00;82.60;;;;;;5012143;28;20213;-66
2023/02/14 10:47:46;;;;;;;20.00;15.43;;;14.00;80.90;;;;;;5014468;28;20271;-66
2023/02/14 10:50:30;;;;;;;17.63;15.18;;;14.30;78.70;;;;;;5015289;28;20200;-66
2023/02/14 10:53:33;;;;;;;17.65;15.73;;;14.20;78.00;;;;;;5017076;28;20209;-66
2023/02/14 10:56:17;;;;;;;18.30;15.15;;;15.20;76.70;;;;;;5012412;28;20734;-67
2023/02/14 10:58:43;;;;;;;17.58;15.35;;;15.30;74.90;;;;;;5011897;28;20195;-66
2023/02/14 11:01:16;;;;;;;17.63;15.00;;;15.70;73.90;;;;;;5017468;28;20344;-66
2023/02/14 11:03:53;;;;;;;17.00;15.20;;;16.10;72.60;;;;;;5023320;28;20201;-67
2023/02/14 11:06:19;;;;;;;17.65;15.75;;;16.70;70.70;;;;;;5020630;28;20214;-66
2023/02/14 11:08:44;;;;;;;18.03;15.07;;;16.60;70.00;;;;;;5015522;28;20194;-66
2023/02/14 11:11:36;;;;;;;18.90;16.90;;;16.90;68.20;;;;;;5017447;28;20291;-66
2023/02/14 11:14:23;;;;;;;22.52;16.65;;;16.10;70.00;;;;;;5022746;28;20236;-66
2023/02/14 11:16:53;;;;;;;17.27;15.48;;;15.90;71.00;;;;;;5015943;28;20218;-67
2023/02/14 11:19:33;;;;;;;20.45;16.85;;;16.10;70.40;;;;;;5023462;28;20175;-67
2023/02/14 11:21:59;;;;;;;17.00;15.20;;;16.50;69.40;;;;;;5015889;28;20194;-67
2023/02/14 11:24:30;;;;;;;18.17;14.95;;;17.00;68.10;;;;;;5022846;28;20592;-66
2023/02/14 11:27:02;;;;;;;17.58;14.60;;;16.80;68.00;;;;;;5023569;28;20667;-64
2023/02/14 11:29:43;;;;;;;18.23;16.08;;;17.00;67.40;;;;;;5018970;28;20186;-67
2023/02/14 11:32:22;;;;;;;22.65;19.77;;;16.80;67.50;;;;;;5018702;28;20710;-66
2023/02/14 11:35:06;;;;;;;19.73;15.93;;;16.40;68.30;;;;;;5019797;28;20206;-67
2023/02/14 11:37:52;;;;;;;19.58;17.13;;;16.50;68.60;;;;;;5023325;28;20534;-67
2023/02/14 11:40:29;;;;;;;15.45;13.85;;;16.30;68.40;;;;;;5027674;28;20658;-67
2023/02/14 11:42:56;;;;;;;19.13;15.18;;;16.40;68.60;;;;;;5026448;28;20527;-67
2023/02/14 11:45:35;;;;;;;19.73;15.80;;;16.50;67.60;;;;;;5022237;28;20595;-67
2023/02/14 11:48:15;;;;;;;16.88;15.05;;;15.50;69.90;;;;;;5024048;28;20240;-66
2023/02/14 11:50:43;;;;;;;17.88;15.93;;;15.80;70.50;;;;;;5021664;28;20217;-66
2023/02/14 11:53:11;;;;;;;17.00;15.27;;;16.00;70.40;;;;;;5020604;28;20333;-65
2023/02/14 11:55:38;;;;;;;19.00;16.30;;;15.80;69.70;;;;;;5027516;28;20287;-67
2023/02/14 11:58:06;;;;;;;17.23;15.25;;;15.70;71.00;;;;;;5023511;28;20193;-66
2023/02/14 12:00:32;;;;;;;22.73;15.70;;;16.30;71.50;;;;;;5024088;28;20567;-66
2023/02/14 12:03:01;;;;;;;19.35;15.98;;;15.40;71.30;;;;;;5018397;28;20233;-67
2023/02/14 12:05:29;;;;;;;16.50;14.80;;;15.20;72.40;;;;;;5016624;28;20269;-67
2023/02/14 12:08:04;;;;;;;16.50;14.90;;;14.70;72.80;;;;;;5020150;28;20703;-67
2023/02/14 12:10:30;;;;;;;18.92;15.50;;;14.10;74.50;;;;;;5022388;28;20700;-66
2023/02/14 12:12:58;;;;;;;17.92;14.90;;;14.30;76.20;;;;;;5020955;28;20537;-67
2023/02/14 12:15:25;;;;;;;15.27;12.95;;;14.50;75.80;;;;;;5014836;28;20190;-66
2023/02/14 12:17:59;;;;;;;22.02;14.60;;;14.00;75.90;;;;;;5021682;28;20937;-67
2023/02/14 12:20:56;;;;;;;17.33;13.98;;;13.80;77.30;;;;;;5018840;28;20739;-66
2023/02/14 12:23:47;;;;;;;15.50;13.35;;;14.30;77.50;;;;;;5011762;28;20224;-66
2023/02/14 12:26:31;;;;;;;17.20;14.75;;;14.30;76.90;;;;;;5019241;28;20210;-67
2023/02/14 12:29:13;;;;;;;15.35;13.48;;;13.60;77.30;;;;;;5013334;28;20179;-66
2023/02/14 12:31:39;;;;;;;18.52;14.48;;;13.10;80.40;;;;;;5017909;28;20207;-67
2023/02/14 12:34:05;;;;;;;17.75;13.57;;;13.70;80.70;;;;;;5022384;28;20596;-66
2023/02/14 12:36:48;;;;;;;16.63;14.10;;;13.30;79.80;;;;;;5015174;28;20290;-66
2023/02/14 12:39:17;;;;;;;22.60;14.38;;;13.20;78.80;;;;;;5015947;28;20193;-66
2023/02/14 12:41:58;;;;;;;16.38;14.07;;;13.00;79.80;;;;;;5018982;28;20190;-66
2023/02/14 12:44:33;;;;;;;16.95;14.63;;;12.90;80.80;;;;;;5025849;28;20266;-66
2023/02/14 12:47:12;;;;;;;16.88;15.13;;;12.60;81.90;;;;;;5014457;28;20208;-66
2023/02/14 12:50:01;;;;;;;18.92;15.18;;;12.90;82.20;;;;;;5019569;28;20240;-66
2023/02/14 12:52:51;;;;;;;17.13;13.98;;;12.50;82.40;;;;;;5014203;28;20223;-66
2023/02/14 12:55:44;;;;;;;18.77;16.65;;;12.40;83.90;;;;;;5020807;28;20239;-66
2023/02/14 12:58:22;;;;;;;16.85;14.05;;;12.60;84.30;;;;;;5023578;28;20182;-65
2023/02/14 13:00:50;;;;;;;17.63;15.63;;;12.50;83.20;;;;;;5021021;28;20210;-65
2023/02/14 13:03:41;;;;;;;16.27;14.55;;;12.50;84.20;;;;;;5020848;28;20779;-65
2023/02/14 13:06:13;;;;;;;17.70;14.50;;;12.50;84.60;;;;;;5003297;28;20672;-65
2023/02/14 13:09:10;;;;;;;19.02;13.95;;;12.50;83.70;;;;;;5015379;28;20241;-65